sensor_id;sensor_type;location;lat;lon;timestamp;P1;durP1;ratioP1;P2;durP2;ratioP2
68216;SDS011;55037;52.354;4.992;2024-01-25T00:02:20;17.83;;;4.35;;
68216;SDS011;55037;52.354;4.992;2024-01-25T00:04:47;18.73;;;5.05;;
68216;SDS011;55037;52.354;4.992;2024-01-25T00:07:15;11.15;;;3.58;;
68216;SDS011;55037;52.354;4.992;2024-01-25T00:09:44;24.63;;;5.38;;
68216;SDS011;55037;52.354;4.992;2024-01-25T00:12:13;18.17;;;5.43;;
68216;SDS011;55037;52.354;4.992;2024-01-25T00:14:41;17.53;;;4.73;;
68216;SDS011;55037;52.354;4.992;2024-01-25T00:17:09;13.82;;;3.85;;
68216;SDS011;55037;52.354;4.992;2024-01-25T00:19:37;14.53;;;4.80;;
68216;SDS011;55037;52.354;4.992;2024-01-25T00:22:05;13.55;;;3.42;;
68216;SDS011;55037;52.354;4.992;2024-01-25T00:24:32;16.70;;;4.88;;
68216;SDS011;55037;52.354;4.992;2024-01-25T00:27:00;11.73;;;3.53;;
68216;SDS011;55037;52.354;4.992;2024-01-25T00:29:29;15.35;;;2.47;;
68216;SDS011;55037;52.354;4.992;2024-01-25T00:31:57;13.43;;;2.75;;
68216;SDS011;55037;52.354;4.992;2024-01-25T00:34:25;11.50;;;2.83;;
68216;SDS011;55037;52.354;4.992;2024-01-25T00:36:53;13.38;;;3.60;;
68216;SDS011;55037;52.354;4.992;2024-01-25T00:39:21;10.60;;;3.30;;
68216;SDS011;55037;52.354;4.992;2024-01-25T00:41:50;14.05;;;3.38;;
68216;SDS011;55037;52.354;4.992;2024-01-25T00:44:18;16.08;;;3.55;;
68216;SDS011;55037;52.354;4.992;2024-01-25T00:46:46;11.68;;;3.30;;
68216;SDS011;55037;52.354;4.992;2024-01-25T00:49:14;12.88;;;3.55;;
68216;SDS011;55037;52.354;4.992;2024-01-25T00:51:43;16.08;;;3.50;;
68216;SDS011;55037;52.354;4.992;2024-01-25T00:54:16;9.02;;;3.00;;
68216;SDS011;55037;52.354;4.992;2024-01-25T00:56:44;11.40;;;3.03;;
68216;SDS011;55037;52.354;4.992;2024-01-25T00:59:12;14.48;;;2.60;;
68216;SDS011;55037;52.354;4.992;2024-01-25T01:01:39;18.45;;;3.40;;
68216;SDS011;55037;52.354;4.992;2024-01-25T01:04:09;17.15;;;3.30;;
68216;SDS011;55037;52.354;4.992;2024-01-25T01:06:37;8.13;;;2.80;;
68216;SDS011;55037;52.354;4.992;2024-01-25T01:09:05;13.02;;;2.63;;
68216;SDS011;55037;52.354;4.992;2024-01-25T01:11:34;12.13;;;2.10;;
68216;SDS011;55037;52.354;4.992;2024-01-25T01:14:01;15.60;;;3.50;;
68216;SDS011;55037;52.354;4.992;2024-01-25T01:16:29;15.65;;;2.58;;
68216;SDS011;55037;52.354;4.992;2024-01-25T01:18:59;10.90;;;2.95;;
68216;SDS011;55037;52.354;4.992;2024-01-25T01:21:35;10.32;;;3.30;;
68216;SDS011;55037;52.354;4.992;2024-01-25T01:24:03;9.15;;;2.00;;
68216;SDS011;55037;52.354;4.992;2024-01-25T01:26:30;11.77;;;3.13;;
68216;SDS011;55037;52.354;4.992;2024-01-25T01:28:58;10.90;;;2.28;;
68216;SDS011;55037;52.354;4.992;2024-01-25T01:31:26;12.68;;;2.90;;
68216;SDS011;55037;52.354;4.992;2024-01-25T01:33:53;12.32;;;2.58;;
68216;SDS011;55037;52.354;4.992;2024-01-25T01:36:21;17.42;;;3.42;;
68216;SDS011;55037;52.354;4.992;2024-01-25T01:38:49;7.72;;;2.58;;
68216;SDS011;55037;52.354;4.992;2024-01-25T01:41:16;15.80;;;2.85;;
68216;SDS011;55037;52.354;4.992;2024-01-25T01:43:44;7.95;;;1.77;;
68216;SDS011;55037;52.354;4.992;2024-01-25T01:46:15;19.58;;;3.50;;
68216;SDS011;55037;52.354;4.992;2024-01-25T01:48:48;10.13;;;2.45;;
68216;SDS011;55037;52.354;4.992;2024-01-25T01:51:16;15.25;;;2.95;;
68216;SDS011;55037;52.354;4.992;2024-01-25T01:53:44;10.33;;;2.37;;
68216;SDS011;55037;52.354;4.992;2024-01-25T01:56:13;13.20;;;3.08;;
68216;SDS011;55037;52.354;4.992;2024-01-25T01:58:41;12.65;;;2.78;;
68216;SDS011;55037;52.354;4.992;2024-01-25T02:01:10;19.63;;;3.40;;
68216;SDS011;55037;52.354;4.992;2024-01-25T02:03:38;9.25;;;2.05;;
68216;SDS011;55037;52.354;4.992;2024-01-25T02:06:06;11.75;;;2.30;;
68216;SDS011;55037;52.354;4.992;2024-01-25T02:08:33;19.70;;;2.90;;
68216;SDS011;55037;52.354;4.992;2024-01-25T02:11:02;12.68;;;2.72;;
68216;SDS011;55037;52.354;4.992;2024-01-25T02:13:30;19.98;;;3.38;;
68216;SDS011;55037;52.354;4.992;2024-01-25T02:15:58;11.80;;;2.25;;
68216;SDS011;55037;52.354;4.992;2024-01-25T02:18:26;13.57;;;3.17;;
68216;SDS011;55037;52.354;4.992;2024-01-25T02:20:54;14.32;;;2.22;;
68216;SDS011;55037;52.354;4.992;2024-01-25T02:23:21;11.98;;;2.00;;
68216;SDS011;55037;52.354;4.992;2024-01-25T02:25:49;14.70;;;2.17;;
68216;SDS011;55037;52.354;4.992;2024-01-25T02:28:16;21.47;;;3.27;;
68216;SDS011;55037;52.354;4.992;2024-01-25T02:30:44;20.15;;;2.95;;
68216;SDS011;55037;52.354;4.992;2024-01-25T02:33:12;16.35;;;2.53;;
68216;SDS011;55037;52.354;4.992;2024-01-25T02:35:39;21.08;;;3.53;;
68216;SDS011;55037;52.354;4.992;2024-01-25T02:38:07;11.35;;;2.20;;
68216;SDS011;55037;52.354;4.992;2024-01-25T02:40:34;16.73;;;2.53;;
68216;SDS011;55037;52.354;4.992;2024-01-25T02:43:02;23.35;;;3.03;;
68216;SDS011;55037;52.354;4.992;2024-01-25T02:45:30;15.90;;;2.73;;
68216;SDS011;55037;52.354;4.992;2024-01-25T02:47:57;17.45;;;2.50;;
68216;SDS011;55037;52.354;4.992;2024-01-25T02:50:26;20.05;;;2.67;;
68216;SDS011;55037;52.354;4.992;2024-01-25T02:52:54;16.60;;;2.90;;
68216;SDS011;55037;52.354;4.992;2024-01-25T02:55:21;16.80;;;2.83;;
68216;SDS011;55037;52.354;4.992;2024-01-25T02:57:49;16.65;;;3.15;;
68216;SDS011;55037;52.354;4.992;2024-01-25T03:00:17;15.25;;;2.70;;
68216;SDS011;55037;52.354;4.992;2024-01-25T03:02:45;15.73;;;2.42;;
68216;SDS011;55037;52.354;4.992;2024-01-25T03:05:12;18.80;;;3.10;;
68216;SDS011;55037;52.354;4.992;2024-01-25T03:07:40;20.58;;;2.97;;
68216;SDS011;55037;52.354;4.992;2024-01-25T03:10:08;25.02;;;3.00;;
68216;SDS011;55037;52.354;4.992;2024-01-25T03:12:36;10.38;;;1.80;;
68216;SDS011;55037;52.354;4.992;2024-01-25T03:15:04;13.57;;;2.50;;
68216;SDS011;55037;52.354;4.992;2024-01-25T03:17:32;15.37;;;2.50;;
68216;SDS011;55037;52.354;4.992;2024-01-25T03:20:00;18.75;;;3.60;;
68216;SDS011;55037;52.354;4.992;2024-01-25T03:22:28;17.20;;;3.13;;
68216;SDS011;55037;52.354;4.992;2024-01-25T03:24:56;8.07;;;2.15;;
68216;SDS011;55037;52.354;4.992;2024-01-25T03:27:23;8.52;;;2.17;;
68216;SDS011;55037;52.354;4.992;2024-01-25T03:29:51;18.52;;;3.10;;
68216;SDS011;55037;52.354;4.992;2024-01-25T03:32:18;18.50;;;3.00;;
68216;SDS011;55037;52.354;4.992;2024-01-25T03:34:46;22.43;;;3.27;;
68216;SDS011;55037;52.354;4.992;2024-01-25T03:37:14;10.35;;;2.47;;
68216;SDS011;55037;52.354;4.992;2024-01-25T03:39:42;17.02;;;3.15;;
68216;SDS011;55037;52.354;4.992;2024-01-25T03:42:10;19.08;;;3.05;;
68216;SDS011;55037;52.354;4.992;2024-01-25T03:44:37;19.92;;;2.33;;
68216;SDS011;55037;52.354;4.992;2024-01-25T03:47:05;22.88;;;3.13;;
68216;SDS011;55037;52.354;4.992;2024-01-25T03:49:33;20.83;;;3.30;;
68216;SDS011;55037;52.354;4.992;2024-01-25T03:52:00;13.95;;;2.67;;
68216;SDS011;55037;52.354;4.992;2024-01-25T03:54:28;31.33;;;3.87;;
68216;SDS011;55037;52.354;4.992;2024-01-25T03:56:56;22.95;;;3.40;;
68216;SDS011;55037;52.354;4.992;2024-01-25T03:59:24;23.65;;;3.45;;
68216;SDS011;55037;52.354;4.992;2024-01-25T04:01:51;17.17;;;3.07;;
68216;SDS011;55037;52.354;4.992;2024-01-25T04:04:19;27.17;;;3.60;;
68216;SDS011;55037;52.354;4.992;2024-01-25T04:06:47;16.10;;;2.30;;
68216;SDS011;55037;52.354;4.992;2024-01-25T04:09:15;17.77;;;3.35;;
68216;SDS011;55037;52.354;4.992;2024-01-25T04:11:42;18.90;;;3.20;;
68216;SDS011;55037;52.354;4.992;2024-01-25T04:14:10;20.00;;;3.33;;
68216;SDS011;55037;52.354;4.992;2024-01-25T04:16:38;24.13;;;3.58;;
68216;SDS011;55037;52.354;4.992;2024-01-25T04:19:06;26.17;;;4.10;;
68216;SDS011;55037;52.354;4.992;2024-01-25T04:21:36;14.63;;;2.78;;
68216;SDS011;55037;52.354;4.992;2024-01-25T04:24:04;20.40;;;3.90;;
68216;SDS011;55037;52.354;4.992;2024-01-25T04:26:32;19.85;;;4.57;;
68216;SDS011;55037;52.354;4.992;2024-01-25T04:28:59;27.58;;;6.22;;
68216;SDS011;55037;52.354;4.992;2024-01-25T04:31:30;31.30;;;6.60;;
68216;SDS011;55037;52.354;4.992;2024-01-25T04:33:57;27.65;;;5.65;;
68216;SDS011;55037;52.354;4.992;2024-01-25T04:36:25;26.83;;;6.38;;
68216;SDS011;55037;52.354;4.992;2024-01-25T04:38:52;25.38;;;6.63;;
68216;SDS011;55037;52.354;4.992;2024-01-25T04:41:20;24.13;;;6.77;;
68216;SDS011;55037;52.354;4.992;2024-01-25T04:43:48;28.45;;;7.93;;
68216;SDS011;55037;52.354;4.992;2024-01-25T04:46:16;25.30;;;6.67;;
68216;SDS011;55037;52.354;4.992;2024-01-25T04:48:44;27.30;;;7.32;;
68216;SDS011;55037;52.354;4.992;2024-01-25T04:51:16;28.17;;;7.75;;
68216;SDS011;55037;52.354;4.992;2024-01-25T04:53:43;25.33;;;9.05;;
68216;SDS011;55037;52.354;4.992;2024-01-25T04:56:11;30.90;;;8.77;;
68216;SDS011;55037;52.354;4.992;2024-01-25T04:58:39;21.92;;;9.43;;
68216;SDS011;55037;52.354;4.992;2024-01-25T05:01:06;33.20;;;9.27;;
68216;SDS011;55037;52.354;4.992;2024-01-25T05:03:34;30.47;;;8.97;;
68216;SDS011;55037;52.354;4.992;2024-01-25T05:06:02;33.53;;;9.02;;
68216;SDS011;55037;52.354;4.992;2024-01-25T05:08:30;29.35;;;9.50;;
68216;SDS011;55037;52.354;4.992;2024-01-25T05:10:58;22.98;;;11.02;;
68216;SDS011;55037;52.354;4.992;2024-01-25T05:13:25;36.58;;;12.82;;
68216;SDS011;55037;52.354;4.992;2024-01-25T05:15:53;35.53;;;12.87;;
68216;SDS011;55037;52.354;4.992;2024-01-25T05:18:21;26.52;;;11.57;;
68216;SDS011;55037;52.354;4.992;2024-01-25T05:20:49;27.77;;;10.75;;
68216;SDS011;55037;52.354;4.992;2024-01-25T05:23:16;22.17;;;11.80;;
68216;SDS011;55037;52.354;4.992;2024-01-25T05:25:44;33.05;;;14.07;;
68216;SDS011;55037;52.354;4.992;2024-01-25T05:28:11;26.10;;;12.25;;
68216;SDS011;55037;52.354;4.992;2024-01-25T05:30:39;32.83;;;13.45;;
68216;SDS011;55037;52.354;4.992;2024-01-25T05:33:07;38.38;;;13.70;;
68216;SDS011;55037;52.354;4.992;2024-01-25T05:35:35;41.17;;;14.95;;
68216;SDS011;55037;52.354;4.992;2024-01-25T05:38:02;32.67;;;15.60;;
68216;SDS011;55037;52.354;4.992;2024-01-25T05:40:30;35.45;;;16.48;;
68216;SDS011;55037;52.354;4.992;2024-01-25T05:42:58;33.15;;;16.48;;
68216;SDS011;55037;52.354;4.992;2024-01-25T05:45:26;29.60;;;15.02;;
68216;SDS011;55037;52.354;4.992;2024-01-25T05:47:54;33.13;;;17.00;;
68216;SDS011;55037;52.354;4.992;2024-01-25T05:50:22;41.45;;;16.88;;
68216;SDS011;55037;52.354;4.992;2024-01-25T05:52:49;35.20;;;16.92;;
68216;SDS011;55037;52.354;4.992;2024-01-25T05:55:17;37.13;;;18.80;;
68216;SDS011;55037;52.354;4.992;2024-01-25T05:57:45;35.60;;;17.43;;
68216;SDS011;55037;52.354;4.992;2024-01-25T06:00:12;36.45;;;17.85;;
68216;SDS011;55037;52.354;4.992;2024-01-25T06:02:45;34.75;;;18.13;;
68216;SDS011;55037;52.354;4.992;2024-01-25T06:05:13;35.63;;;16.95;;
68216;SDS011;55037;52.354;4.992;2024-01-25T06:07:41;35.53;;;17.43;;
68216;SDS011;55037;52.354;4.992;2024-01-25T06:10:11;38.03;;;19.15;;
68216;SDS011;55037;52.354;4.992;2024-01-25T06:12:39;33.85;;;18.98;;
68216;SDS011;55037;52.354;4.992;2024-01-25T06:15:07;34.40;;;19.60;;
68216;SDS011;55037;52.354;4.992;2024-01-25T06:17:35;36.15;;;17.92;;
68216;SDS011;55037;52.354;4.992;2024-01-25T06:20:03;38.30;;;18.23;;
68216;SDS011;55037;52.354;4.992;2024-01-25T06:22:31;38.70;;;18.05;;
68216;SDS011;55037;52.354;4.992;2024-01-25T06:24:59;41.25;;;19.40;;
68216;SDS011;55037;52.354;4.992;2024-01-25T06:27:27;35.03;;;18.97;;
68216;SDS011;55037;52.354;4.992;2024-01-25T06:29:54;37.78;;;18.60;;
68216;SDS011;55037;52.354;4.992;2024-01-25T06:32:22;38.42;;;18.40;;
68216;SDS011;55037;52.354;4.992;2024-01-25T06:34:52;44.75;;;19.80;;
68216;SDS011;55037;52.354;4.992;2024-01-25T06:37:21;33.45;;;18.52;;
68216;SDS011;55037;52.354;4.992;2024-01-25T06:39:49;42.20;;;19.52;;
68216;SDS011;55037;52.354;4.992;2024-01-25T06:42:16;39.00;;;20.47;;
68216;SDS011;55037;52.354;4.992;2024-01-25T06:44:44;33.85;;;18.17;;
68216;SDS011;55037;52.354;4.992;2024-01-25T06:47:12;35.08;;;18.88;;
68216;SDS011;55037;52.354;4.992;2024-01-25T06:49:39;46.00;;;19.20;;
68216;SDS011;55037;52.354;4.992;2024-01-25T06:52:07;45.75;;;20.58;;
68216;SDS011;55037;52.354;4.992;2024-01-25T06:54:35;37.75;;;19.85;;
68216;SDS011;55037;52.354;4.992;2024-01-25T06:57:02;40.53;;;19.37;;
68216;SDS011;55037;52.354;4.992;2024-01-25T06:59:30;41.63;;;19.67;;
68216;SDS011;55037;52.354;4.992;2024-01-25T07:01:59;42.00;;;20.13;;
68216;SDS011;55037;52.354;4.992;2024-01-25T07:04:29;40.63;;;20.40;;
68216;SDS011;55037;52.354;4.992;2024-01-25T07:06:57;43.47;;;19.50;;
68216;SDS011;55037;52.354;4.992;2024-01-25T07:09:26;40.35;;;19.42;;
68216;SDS011;55037;52.354;4.992;2024-01-25T07:11:54;41.00;;;20.25;;
68216;SDS011;55037;52.354;4.992;2024-01-25T07:14:22;42.75;;;19.15;;
68216;SDS011;55037;52.354;4.992;2024-01-25T07:16:49;39.05;;;17.58;;
68216;SDS011;55037;52.354;4.992;2024-01-25T07:19:17;36.65;;;18.38;;
68216;SDS011;55037;52.354;4.992;2024-01-25T07:21:45;39.92;;;20.13;;
68216;SDS011;55037;52.354;4.992;2024-01-25T07:24:13;51.05;;;20.17;;
68216;SDS011;55037;52.354;4.992;2024-01-25T07:26:40;37.50;;;19.40;;
68216;SDS011;55037;52.354;4.992;2024-01-25T07:29:08;45.58;;;19.83;;
68216;SDS011;55037;52.354;4.992;2024-01-25T07:31:36;39.38;;;18.85;;
68216;SDS011;55037;52.354;4.992;2024-01-25T07:34:03;34.83;;;18.75;;
68216;SDS011;55037;52.354;4.992;2024-01-25T07:36:31;34.42;;;19.27;;
68216;SDS011;55037;52.354;4.992;2024-01-25T07:38:59;37.08;;;18.83;;
68216;SDS011;55037;52.354;4.992;2024-01-25T07:41:26;32.65;;;18.20;;
68216;SDS011;55037;52.354;4.992;2024-01-25T07:43:54;38.38;;;19.13;;
68216;SDS011;55037;52.354;4.992;2024-01-25T07:46:22;41.10;;;19.23;;
68216;SDS011;55037;52.354;4.992;2024-01-25T07:48:51;36.72;;;18.88;;
68216;SDS011;55037;52.354;4.992;2024-01-25T07:51:19;41.03;;;20.00;;
68216;SDS011;55037;52.354;4.992;2024-01-25T07:53:46;43.78;;;19.60;;
68216;SDS011;55037;52.354;4.992;2024-01-25T07:56:14;40.95;;;20.25;;
68216;SDS011;55037;52.354;4.992;2024-01-25T07:58:42;38.87;;;18.77;;
68216;SDS011;55037;52.354;4.992;2024-01-25T08:01:10;36.47;;;20.08;;
68216;SDS011;55037;52.354;4.992;2024-01-25T08:03:38;37.00;;;18.73;;
68216;SDS011;55037;52.354;4.992;2024-01-25T08:06:06;36.42;;;20.27;;
68216;SDS011;55037;52.354;4.992;2024-01-25T08:08:34;36.97;;;19.60;;
68216;SDS011;55037;52.354;4.992;2024-01-25T08:11:02;42.38;;;20.38;;
68216;SDS011;55037;52.354;4.992;2024-01-25T08:13:30;44.42;;;20.73;;
68216;SDS011;55037;52.354;4.992;2024-01-25T08:16:01;37.50;;;18.83;;
68216;SDS011;55037;52.354;4.992;2024-01-25T08:18:29;41.67;;;20.85;;
68216;SDS011;55037;52.354;4.992;2024-01-25T08:20:58;38.45;;;20.52;;
68216;SDS011;55037;52.354;4.992;2024-01-25T08:23:27;42.28;;;20.10;;
68216;SDS011;55037;52.354;4.992;2024-01-25T08:25:55;38.97;;;19.07;;
68216;SDS011;55037;52.354;4.992;2024-01-25T08:28:22;34.25;;;18.20;;
68216;SDS011;55037;52.354;4.992;2024-01-25T08:30:50;43.92;;;19.83;;
68216;SDS011;55037;52.354;4.992;2024-01-25T08:33:18;25.47;;;18.23;;
68216;SDS011;55037;52.354;4.992;2024-01-25T08:35:46;36.70;;;18.27;;
68216;SDS011;55037;52.354;4.992;2024-01-25T08:38:13;46.05;;;18.20;;
68216;SDS011;55037;52.354;4.992;2024-01-25T08:40:41;19.83;;;16.42;;
68216;SDS011;55037;52.354;4.992;2024-01-25T08:43:09;32.40;;;16.95;;
68216;SDS011;55037;52.354;4.992;2024-01-25T08:45:37;31.73;;;14.73;;
68216;SDS011;55037;52.354;4.992;2024-01-25T08:48:05;23.77;;;10.25;;
68216;SDS011;55037;52.354;4.992;2024-01-25T08:50:33;27.27;;;8.13;;
68216;SDS011;55037;52.354;4.992;2024-01-25T08:53:01;31.48;;;5.88;;
68216;SDS011;55037;52.354;4.992;2024-01-25T08:55:28;30.83;;;5.05;;
68216;SDS011;55037;52.354;4.992;2024-01-25T08:57:56;30.73;;;4.53;;
68216;SDS011;55037;52.354;4.992;2024-01-25T09:00:24;30.10;;;4.75;;
68216;SDS011;55037;52.354;4.992;2024-01-25T09:02:51;25.57;;;3.40;;
68216;SDS011;55037;52.354;4.992;2024-01-25T09:05:19;23.30;;;4.05;;
68216;SDS011;55037;52.354;4.992;2024-01-25T09:07:47;11.57;;;3.55;;
68216;SDS011;55037;52.354;4.992;2024-01-25T09:10:15;30.63;;;4.70;;
68216;SDS011;55037;52.354;4.992;2024-01-25T09:12:43;33.65;;;4.60;;
68216;SDS011;55037;52.354;4.992;2024-01-25T09:15:11;28.73;;;5.00;;
68216;SDS011;55037;52.354;4.992;2024-01-25T09:17:40;35.95;;;5.30;;
68216;SDS011;55037;52.354;4.992;2024-01-25T09:20:08;24.27;;;4.25;;
68216;SDS011;55037;52.354;4.992;2024-01-25T09:22:36;25.67;;;4.65;;
68216;SDS011;55037;52.354;4.992;2024-01-25T09:25:04;19.83;;;3.85;;
68216;SDS011;55037;52.354;4.992;2024-01-25T09:27:35;27.48;;;4.38;;
68216;SDS011;55037;52.354;4.992;2024-01-25T09:30:07;23.35;;;3.78;;
68216;SDS011;55037;52.354;4.992;2024-01-25T09:32:35;20.75;;;4.15;;
68216;SDS011;55037;52.354;4.992;2024-01-25T09:35:03;26.15;;;4.20;;
68216;SDS011;55037;52.354;4.992;2024-01-25T09:37:31;17.05;;;3.28;;
68216;SDS011;55037;52.354;4.992;2024-01-25T09:39:59;21.50;;;4.28;;
68216;SDS011;55037;52.354;4.992;2024-01-25T09:42:27;23.25;;;3.95;;
68216;SDS011;55037;52.354;4.992;2024-01-25T09:44:56;21.15;;;3.85;;
68216;SDS011;55037;52.354;4.992;2024-01-25T09:47:23;21.23;;;3.70;;
68216;SDS011;55037;52.354;4.992;2024-01-25T09:49:51;17.58;;;4.22;;
68216;SDS011;55037;52.354;4.992;2024-01-25T09:52:19;19.48;;;4.00;;
68216;SDS011;55037;52.354;4.992;2024-01-25T09:54:52;13.10;;;2.72;;
68216;SDS011;55037;52.354;4.992;2024-01-25T09:57:22;18.98;;;3.42;;
68216;SDS011;55037;52.354;4.992;2024-01-25T09:59:51;19.73;;;3.50;;
68216;SDS011;55037;52.354;4.992;2024-01-25T10:02:20;18.60;;;3.70;;
68216;SDS011;55037;52.354;4.992;2024-01-25T10:04:51;25.67;;;4.07;;
68216;SDS011;55037;52.354;4.992;2024-01-25T10:07:35;21.98;;;4.07;;
68216;SDS011;55037;52.354;4.992;2024-01-25T10:10:03;20.65;;;3.85;;
68216;SDS011;55037;52.354;4.992;2024-01-25T10:12:32;20.17;;;3.97;;
68216;SDS011;55037;52.354;4.992;2024-01-25T10:14:59;21.33;;;4.30;;
68216;SDS011;55037;52.354;4.992;2024-01-25T10:17:27;20.98;;;3.78;;
68216;SDS011;55037;52.354;4.992;2024-01-25T10:20:16;25.87;;;4.30;;
68216;SDS011;55037;52.354;4.992;2024-01-25T10:22:44;24.13;;;4.20;;
68216;SDS011;55037;52.354;4.992;2024-01-25T10:25:13;19.38;;;4.60;;
68216;SDS011;55037;52.354;4.992;2024-01-25T10:27:44;25.80;;;4.30;;
68216;SDS011;55037;52.354;4.992;2024-01-25T10:30:12;29.40;;;4.68;;
68216;SDS011;55037;52.354;4.992;2024-01-25T10:32:40;20.60;;;4.25;;
68216;SDS011;55037;52.354;4.992;2024-01-25T10:35:08;17.70;;;3.67;;
68216;SDS011;55037;52.354;4.992;2024-01-25T10:37:37;16.65;;;3.35;;
68216;SDS011;55037;52.354;4.992;2024-01-25T10:40:07;25.67;;;4.47;;
68216;SDS011;55037;52.354;4.992;2024-01-25T10:42:36;27.77;;;4.70;;
68216;SDS011;55037;52.354;4.992;2024-01-25T10:45:06;21.88;;;4.40;;
68216;SDS011;55037;52.354;4.992;2024-01-25T10:47:35;21.98;;;4.60;;
68216;SDS011;55037;52.354;4.992;2024-01-25T10:50:03;14.40;;;2.93;;
68216;SDS011;55037;52.354;4.992;2024-01-25T10:52:32;18.73;;;4.10;;
68216;SDS011;55037;52.354;4.992;2024-01-25T10:55:00;25.00;;;4.40;;
68216;SDS011;55037;52.354;4.992;2024-01-25T10:57:33;21.43;;;4.00;;
68216;SDS011;55037;52.354;4.992;2024-01-25T11:00:02;21.38;;;4.30;;
68216;SDS011;55037;52.354;4.992;2024-01-25T11:02:30;15.02;;;3.00;;
68216;SDS011;55037;52.354;4.992;2024-01-25T11:04:58;21.23;;;4.20;;
68216;SDS011;55037;52.354;4.992;2024-01-25T11:07:28;19.37;;;4.50;;
68216;SDS011;55037;52.354;4.992;2024-01-25T11:09:55;14.95;;;4.22;;
68216;SDS011;55037;52.354;4.992;2024-01-25T11:12:23;22.83;;;5.50;;
68216;SDS011;55037;52.354;4.992;2024-01-25T11:14:54;21.15;;;4.13;;
68216;SDS011;55037;52.354;4.992;2024-01-25T11:17:22;20.35;;;3.60;;
68216;SDS011;55037;52.354;4.992;2024-01-25T11:19:50;13.18;;;2.83;;
68216;SDS011;55037;52.354;4.992;2024-01-25T11:22:19;14.03;;;3.40;;
68216;SDS011;55037;52.354;4.992;2024-01-25T11:24:47;21.27;;;4.82;;
68216;SDS011;55037;52.354;4.992;2024-01-25T11:27:15;15.93;;;3.67;;
68216;SDS011;55037;52.354;4.992;2024-01-25T11:29:43;23.10;;;4.68;;
68216;SDS011;55037;52.354;4.992;2024-01-25T11:32:11;25.27;;;4.43;;
68216;SDS011;55037;52.354;4.992;2024-01-25T11:34:39;19.58;;;3.65;;
68216;SDS011;55037;52.354;4.992;2024-01-25T11:37:07;21.13;;;4.13;;
68216;SDS011;55037;52.354;4.992;2024-01-25T11:39:35;24.77;;;4.22;;
68216;SDS011;55037;52.354;4.992;2024-01-25T11:42:03;20.23;;;3.70;;
68216;SDS011;55037;52.354;4.992;2024-01-25T11:44:30;21.03;;;4.07;;
68216;SDS011;55037;52.354;4.992;2024-01-25T11:46:58;12.93;;;2.38;;
68216;SDS011;55037;52.354;4.992;2024-01-25T11:49:26;18.83;;;3.90;;
68216;SDS011;55037;52.354;4.992;2024-01-25T11:51:53;18.80;;;3.70;;
68216;SDS011;55037;52.354;4.992;2024-01-25T11:54:21;16.30;;;3.67;;
68216;SDS011;55037;52.354;4.992;2024-01-25T11:56:49;17.50;;;3.70;;
68216;SDS011;55037;52.354;4.992;2024-01-25T11:59:17;21.42;;;4.28;;
68216;SDS011;55037;52.354;4.992;2024-01-25T12:01:44;15.38;;;3.47;;
68216;SDS011;55037;52.354;4.992;2024-01-25T12:04:12;15.80;;;3.27;;
68216;SDS011;55037;52.354;4.992;2024-01-25T12:06:40;18.95;;;3.97;;
68216;SDS011;55037;52.354;4.992;2024-01-25T12:09:08;21.83;;;4.27;;
68216;SDS011;55037;52.354;4.992;2024-01-25T12:11:37;15.73;;;3.47;;
68216;SDS011;55037;52.354;4.992;2024-01-25T12:14:04;19.85;;;3.75;;
68216;SDS011;55037;52.354;4.992;2024-01-25T12:16:32;22.58;;;4.32;;
68216;SDS011;55037;52.354;4.992;2024-01-25T12:19:03;18.58;;;3.50;;
68216;SDS011;55037;52.354;4.992;2024-01-25T12:21:32;19.33;;;4.45;;
68216;SDS011;55037;52.354;4.992;2024-01-25T12:24:00;20.63;;;4.65;;
68216;SDS011;55037;52.354;4.992;2024-01-25T12:26:33;19.73;;;4.40;;
68216;SDS011;55037;52.354;4.992;2024-01-25T12:29:01;23.88;;;5.20;;
68216;SDS011;55037;52.354;4.992;2024-01-25T12:31:30;23.42;;;4.13;;
68216;SDS011;55037;52.354;4.992;2024-01-25T12:33:58;26.27;;;4.38;;
68216;SDS011;55037;52.354;4.992;2024-01-25T12:36:26;21.08;;;3.88;;
68216;SDS011;55037;52.354;4.992;2024-01-25T12:38:54;17.80;;;4.10;;
68216;SDS011;55037;52.354;4.992;2024-01-25T12:41:21;19.27;;;4.07;;
68216;SDS011;55037;52.354;4.992;2024-01-25T12:43:49;20.02;;;3.88;;
68216;SDS011;55037;52.354;4.992;2024-01-25T12:46:19;16.63;;;4.25;;
68216;SDS011;55037;52.354;4.992;2024-01-25T12:48:54;16.23;;;3.75;;
68216;SDS011;55037;52.354;4.992;2024-01-25T12:51:24;18.40;;;4.22;;
68216;SDS011;55037;52.354;4.992;2024-01-25T12:53:52;14.50;;;3.83;;
68216;SDS011;55037;52.354;4.992;2024-01-25T12:56:20;21.45;;;4.65;;
68216;SDS011;55037;52.354;4.992;2024-01-25T12:58:48;24.20;;;4.33;;
68216;SDS011;55037;52.354;4.992;2024-01-25T13:01:16;21.07;;;4.40;;
68216;SDS011;55037;52.354;4.992;2024-01-25T13:03:44;23.23;;;4.78;;
68216;SDS011;55037;52.354;4.992;2024-01-25T13:06:16;13.50;;;3.90;;
68216;SDS011;55037;52.354;4.992;2024-01-25T13:08:44;12.30;;;3.35;;
68216;SDS011;55037;52.354;4.992;2024-01-25T13:11:12;11.88;;;4.40;;
68216;SDS011;55037;52.354;4.992;2024-01-25T13:13:39;22.17;;;4.22;;
68216;SDS011;55037;52.354;4.992;2024-01-25T13:16:07;20.50;;;4.78;;
68216;SDS011;55037;52.354;4.992;2024-01-25T13:18:35;17.33;;;4.20;;
68216;SDS011;55037;52.354;4.992;2024-01-25T13:21:03;22.30;;;5.20;;
68216;SDS011;55037;52.354;4.992;2024-01-25T13:23:31;18.15;;;4.00;;
68216;SDS011;55037;52.354;4.992;2024-01-25T13:25:58;25.70;;;5.68;;
68216;SDS011;55037;52.354;4.992;2024-01-25T13:28:26;19.23;;;5.13;;
68216;SDS011;55037;52.354;4.992;2024-01-25T13:30:56;23.33;;;5.15;;
68216;SDS011;55037;52.354;4.992;2024-01-25T13:33:24;11.73;;;3.37;;
68216;SDS011;55037;52.354;4.992;2024-01-25T13:35:52;17.90;;;3.75;;
68216;SDS011;55037;52.354;4.992;2024-01-25T13:38:19;23.90;;;4.82;;
68216;SDS011;55037;52.354;4.992;2024-01-25T13:40:48;21.75;;;5.45;;
68216;SDS011;55037;52.354;4.992;2024-01-25T13:43:16;17.08;;;4.70;;
68216;SDS011;55037;52.354;4.992;2024-01-25T13:45:44;23.65;;;5.40;;
68216;SDS011;55037;52.354;4.992;2024-01-25T13:48:12;20.75;;;5.22;;
68216;SDS011;55037;52.354;4.992;2024-01-25T13:50:39;18.03;;;5.27;;
68216;SDS011;55037;52.354;4.992;2024-01-25T13:53:07;18.92;;;5.47;;
68216;SDS011;55037;52.354;4.992;2024-01-25T13:55:34;19.88;;;5.13;;
68216;SDS011;55037;52.354;4.992;2024-01-25T13:58:02;14.90;;;4.85;;
68216;SDS011;55037;52.354;4.992;2024-01-25T14:00:31;24.93;;;6.00;;
68216;SDS011;55037;52.354;4.992;2024-01-25T14:03:00;26.23;;;5.57;;
68216;SDS011;55037;52.354;4.992;2024-01-25T14:05:27;19.10;;;5.23;;
68216;SDS011;55037;52.354;4.992;2024-01-25T14:07:55;27.80;;;6.60;;
68216;SDS011;55037;52.354;4.992;2024-01-25T14:10:23;22.20;;;5.30;;
68216;SDS011;55037;52.354;4.992;2024-01-25T14:12:51;19.40;;;5.27;;
68216;SDS011;55037;52.354;4.992;2024-01-25T14:15:19;24.30;;;5.60;;
68216;SDS011;55037;52.354;4.992;2024-01-25T14:17:47;14.52;;;4.45;;
68216;SDS011;55037;52.354;4.992;2024-01-25T14:20:15;22.15;;;4.82;;
68216;SDS011;55037;52.354;4.992;2024-01-25T14:22:44;16.92;;;4.40;;
68216;SDS011;55037;52.354;4.992;2024-01-25T14:25:12;26.02;;;6.07;;
68216;SDS011;55037;52.354;4.992;2024-01-25T14:27:40;11.65;;;4.20;;
68216;SDS011;55037;52.354;4.992;2024-01-25T14:30:08;22.13;;;5.13;;
68216;SDS011;55037;52.354;4.992;2024-01-25T14:32:36;26.10;;;6.05;;
68216;SDS011;55037;52.354;4.992;2024-01-25T14:35:03;16.45;;;4.10;;
68216;SDS011;55037;52.354;4.992;2024-01-25T14:37:31;16.98;;;4.20;;